To NAV CANADA Home Page Login to a new session Search on AWWS site Feedback and Comments Disclaimer Vers la page française équivalente Tips FAQ What's new on the site To the Forecasts and Observations / NOTAM section To "File a Flight Plan" website Publications and other links Update of the User's profile FIC Telephone Numbers My Weather Data Folder Route Weather Data Regional Weather Data Local Weather Data To the Forecasts and Observations / NOTAM section
Request Generated 10/17/2017 at 01:54:16 UTC . Weather information available at that time is displayed.

METAR/TAF

CLYDE RIVER/NU    (show WxCam)

METAR CYCY 170100Z AUTO 30013KT 9SM -SN FEW027 SCT040 OVC048 M05/M07
A2969 RMK SLP058=
SPECI CYCY 170057Z AUTO 30012KT 9SM -SN SCT040 OVC048 M06/M08 A2969
RMK SLP058=
METAR CYCY 170000Z AUTO 30013KT 9SM OVC048 M06/M08 A2969 RMK SLP058=

TAF CYCY 170038Z 1701/1713 30012KT P6SM OVC040 TEMPO 1701/1713 2SM
-SN OVC020
RMK FCST BASED ON AUTO OBS. NXT FCST BY 170700Z=
Your time UTC time
Weather data provided by Environment Canada and NAV CANADA